Home > Products > Valid Products > TAF

000
FTUS45 KBOI 231120
TAFBNO
TAF
KBNO 231120Z 2312/2412 VRB05KT P6SM BKN090
     FM231800 20008KT P6SM BKN100
     FM240200 29007KT P6SM BKN120=



000
FTUS45 KBOI 231120
TAFBKE
TAF
KBKE 231120Z 2312/2412 VRB06KT P6SM BKN090
     FM232000 34007KT P6SM VCSH SCT060 BKN100
     FM240300 VRB05KT P6SM BKN120=



000
FTUS45 KBOI 231120
TAFJER
TAF
KJER 231120Z 2312/2412 VRB05KT P6SM FEW100
     FM232000 27008KT P6SM BKN100
     FM240200 07007KT P6SM SCT120=



000
FTUS45 KBOI 231120
TAFBOI
TAF
KBOI 231120Z 2312/2412 13008KT P6SM FEW100
     FM231800 VRB05KT P6SM SCT120
     FM240000 33007KT P6SM SKC=



000
FTUS45 KBOI 231120
TAFTWF
TAF
KTWF 231120Z 2312/2412 18008KT P6SM FEW090
     FM232000 29008KT P6SM VCSH BKN120
     FM240200 16007KT P6SM SCT100=



000
FTUS45 KBOI 231120
TAFMYL
TAF
KMYL 231120Z 2312/2412 VRB03KT P6SM VCSH BKN013 OVC080
      TEMPO 2312/2314 6SM BR
     FM231400 19009KT P6SM VCSH BKN060
     FM240200 VRB03KT P6SM BKN100=



000
FTUS45 KBOI 230520
TAFMYL
TAF
KMYL 230520Z 2306/2406 VRB03KT P6SM VCSH BKN040 OVC080
     FM231900 19010KT P6SM VCSH BKN060
     FM240200 VRB03KT P6SM BKN100=



000
FTUS45 KBOI 230520
TAFJER
TAF
KJER 230520Z 2306/2406 VRB05KT P6SM FEW100
     FM232000 27008KT P6SM BKN100
     FM240200 07007KT P6SM SCT120=



000
FTUS45 KBOI 230520
TAFBNO
TAF
KBNO 230520Z 2306/2406 VRB05KT P6SM BKN090
     FM231800 20008KT P6SM BKN100
     FM240200 29007KT P6SM BKN120=



000
FTUS45 KBOI 230520
TAFTWF
TAF
KTWF 230520Z 2306/2406 18008KT P6SM FEW090
     FM231800 29008KT P6SM BKN120
     FM240200 16007KT P6SM SKC=



000
FTUS45 KBOI 230520
TAFBOI
TAF
KBOI 230520Z 2306/2406 13008KT P6SM FEW100
     FM231800 VRB05KT P6SM SCT120
     FM240000 33007KT P6SM SKC=



000
FTUS45 KBOI 230520
TAFBKE
TAF
KBKE 230520Z 2306/2406 VRB06KT P6SM BKN090
     FM232000 34007KT P6SM VCSH SCT060 BKN100
     FM240300 VRB05KT P6SM BKN120=



000
FTUS45 KBOI 222359 AAB
TAFJER
TAF AMD
KJER 222359Z 2300/2324 27015KT P6SM VCTS FEW070CB
     FM230300 VRB05KT P6SM SKC
     FM232000 25007KT P6SM BKN120=



000
FTUS45 KBOI 222357 AAB
TAFBOI
TAF AMD
KBOI 222357Z 2300/2324 22012KT P6SM VCSH FEW060 BKN100
     FM230200 13007KT P6SM FEW100
     FM231800 VRB05KT P6SM SCT120=



000
FTUS45 KBOI 222341 AAA
TAFJER
TAF AMD
KJER 222341Z 2300/2324 23012KT P6SM VCTS FEW070CB
     FM230300 VRB05KT P6SM SKC
     FM232000 25007KT P6SM BKN120=



000
FTUS45 KBOI 222341 AAA
TAFTWF
TAF AMD
KTWF 222341Z 2300/2324 16010KT P6SM VCTS FEW060CB
     FM230500 19008KT P6SM SKC
     FM231800 29008KT P6SM BKN120=



000
FTUS45 KBOI 222200 AAA
TAFMYL
TAF AMD
KMYL 222200Z 2222/2318 20010KT P6SM VCSH BKN040
      TEMPO 2222/2224 22010G20KT P6SM -SHRA SCT020 BKN030
     FM230400 VRB06KT P6SM BKN035=



000
FTUS45 KBOI 221740
TAFBNO
TAF
KBNO 221740Z 2218/2318 22008KT P6SM VCSH BKN035 BKN050
      TEMPO 2221/2224 22010G20KT P6SM -SHRA BKN035
     FM230100 27007KT P6SM BKN035=



000
FTUS45 KBOI 221740
TAFMYL
TAF
KMYL 221740Z 2218/2318 17011KT P6SM BKN025
     FM222100 20011KT P6SM VCSH BKN035
      TEMPO 2221/2224 22010G20KT P6SM -SHRA SCT020 BKN030
     FM230400 VRB06KT P6SM BKN035=



000
FTUS45 KBOI 221740
TAFBOI
TAF
KBOI 221740Z 2218/2318 29006KT P6SM BKN040 BKN070
     FM222100 32009KT P6SM VCSH BKN040 BKN070
      TEMPO 2221/2224 30010G20KT P6SM -SHRA BKN040
     FM230400 14006KT P6SM FEW050=



000
FTUS45 KBOI 221740
TAFJER
TAF
KJER 221740Z 2218/2318 25010KT P6SM SCT050
     FM222000 25010G18KT P6SM VCSH BKN035
      TEMPO 2221/2224 28010G25KT P6SM -SHRA BKN035
     FM230100 07009KT P6SM SCT050 BKN080
     FM231700 25007KT P6SM BKN080=



000
FTUS45 KBOI 221740
TAFTWF
TAF
KTWF 221740Z 2218/2318 28010G18KT P6SM VCSH BKN050
      TEMPO 2221/2224 28010G25KT P6SM -SHRA BKN035
     FM230100 19011KT P6SM SCT050 SCT200
     FM231700 32007KT P6SM BKN080=



000
FTUS45 KBOI 221740
TAFBKE
TAF
KBKE 221740Z 2218/2318 VRB06KT P6SM BKN050
     FM222000 31011KT P6SM VCSH BKN040
      TEMPO 2221/2224 30011G18KT P6SM -SHRA BKN035
     FM230100 VRB06KT P6SM BKN035=



000
FTUS45 KBOI 221637 AAB
TAFBOI
TAF AMD
KBOI 221637Z 2217/2312 29006KT P6SM BKN040
     FM222100 32009KT P6SM VCSH BKN040
     FM230400 VRB06KT P6SM FEW050 SCT100=



000
FTUS45 KBOI 221130
TAFMYL
TAF
KMYL 221130Z 2212/2312 VRB04KT P6SM BKN010 OVC020
     FM221900 18012KT P6SM VCSH OVC025
     FM230000 19007KT P6SM VCSH BKN040
     FM230400 VRB04KT P6SM SCT040=



000
FTUS45 KBOI 221130
TAFBNO
TAF
KBNO 221130Z 2212/2312 VRB04KT P6SM BKN100
     FM221600 29008KT P6SM BKN100
     FM230400 VRB06KT P6SM SCT200=



000
FTUS45 KBOI 221130
TAFTWF
TAF
KTWF 221130Z 2212/2312 21008KT P6SM SKC
     FM221700 26010KT P6SM SCT050
     FM222000 28012KT P6SM VCSH BKN050
     FM230400 20008KT P6SM FEW050 SCT200=



000
FTUS45 KBOI 221130
TAFBKE
TAF
KBKE 221130Z 2212/2312 VRB05KT P6SM OVC100
     FM221800 30010KT P6SM BKN050
     FM230400 23008KT P6SM SCT250=



000
FTUS45 KBOI 221130
TAFJER
TAF
KJER 221130Z 2212/2312 VRB06KT P6SM SKC
     FM221700 25010KT P6SM SCT050
     FM222000 25012KT P6SM VCSH BKN050
     FM230400 VRB06KT P6SM SCT050 BKN080=



000
FTUS45 KBOI 221130
TAFBOI
TAF
KBOI 221130Z 2212/2312 29006KT P6SM OVC050
     FM222100 32009KT P6SM VCSH BKN050
     FM230400 VRB06KT P6SM FEW080 SCT200=



000
FTUS45 KBOI 220520
TAFBKE
TAF
KBKE 220520Z 2206/2306 VRB05KT P6SM VCSH BKN035
     FM221900 30010KT P6SM BKN050
     FM230000 23008KT P6SM BKN080=



000
FTUS45 KBOI 220520
TAFJER
TAF
KJER 220520Z 2206/2306 VRB06KT P6SM SCT050
     FM221700 25010KT P6SM -SHRA BKN035
     FM222000 25012KT P6SM VCSH BKN050
     FM230000 25012KT P6SM SCT050 BKN080=



000
FTUS45 KBOI 220520
TAFTWF
TAF
KTWF 220520Z 2206/2306 23008KT P6SM SCT050
     FM221700 25010KT P6SM -SHRA BKN035
     FM222000 28012G22KT P6SM VCSH BKN050
     FM230000 26012KT P6SM VCSH SCT050 BKN100=



000
FTUS45 KBOI 220520
TAFBOI
TAF
KBOI 220520Z 2206/2306 VRB06KT P6SM VCSH OVC050
     FM221700 28007KT P6SM -SHRA BKN035
     FM222100 32009KT P6SM VCSH BKN050
     FM230200 VRB06KT P6SM FEW060 BKN100=



000
FTUS45 KBOI 220520
TAFBNO
TAF
KBNO 220520Z 2206/2306 25010KT P6SM BKN060
     FM221600 23008KT P6SM VCSH BKN035
     FM222000 21010KT P6SM BKN040
     FM230000 23008KT P6SM BKN070=



000
FTUS45 KBOI 220520
TAFMYL
TAF
KMYL 220520Z 2206/2306 VRB04KT P6SM -RA OVC015
     FM221900 18012KT P6SM -RA OVC025
     FM230000 19007KT P6SM VCSH BKN040=



000
FTUS45 KBOI 220317 AAA
TAFMYL
TAF AMD
KMYL 220317Z 2203/2224 VRB04KT P6SM VCSH OVC015
     FM220900 VRB06KT 1SM -SHSN BR OVC004
     FM221500 32007KT 4SM -SHRASN BR SCT005 BKN009 OVC030
     FM221900 18012KT 6SM -RA BR OVC025=



000
FTUS45 KBOI 212341 AAA
TAFBOI
TAF AMD
KBOI 212341Z 2200/2224 28015KT P6SM -SHRA BKN040 OVC050
     FM220100 VRB06KT P6SM VCSH BKN035
     FM221700 30010KT P6SM -SHRA BKN035
     FM222100 32007KT P6SM VCSH BKN050=



000
FTUS45 KBOI 212331
TAFJER
TAF
KJER 212331Z 2200/2224 13007KT P6SM VCSH BKN100
     FM220300 25006KT P6SM VCSH BKN050
     FM221700 25011KT P6SM -SHRA BKN035
     FM222100 26013KT P6SM VCSH BKN050=



000
FTUS45 KBOI 212331
TAFTWF
TAF
KTWF 212331Z 2200/2224 27008KT P6SM VCSH SCT040 BKN070
     FM220200 20010KT P6SM VCSH BKN050
     FM221700 28011KT P6SM -SHRA BKN035
     FM222100 28013G20KT P6SM VCSH BKN050=



000
FTUS45 KBOI 212331
TAFBOI
TAF
KBOI 212331Z 2200/2224 23008KT P6SM VCSH SCT050 BKN080
     FM220100 VRB06KT P6SM VCSH BKN035
     FM221700 30010KT P6SM -SHRA BKN035
     FM222100 32007KT P6SM VCSH BKN050=



000
FTUS45 KBOI 212331
TAFBKE
TAF
KBKE 212331Z 2200/2224 VRB07KT P6SM VCSH FEW070
     FM220900 31006KT P6SM VCSH BKN035
     FM222100 30010KT P6SM BKN060=



000
FTUS45 KBOI 212331
TAFBNO
TAF
KBNO 212331Z 2200/2224 23015G25KT P6SM VCSH SCT030 BKN050
     FM220300 27007KT P6SM BKN015
     FM221700 27007KT P6SM -SHRA BKN035
     FM222100 22012KT P6SM BKN060=



000
FTUS45 KBOI 212331
TAFMYL
TAF
KMYL 212331Z 2200/2224 VRB03KT P6SM VCTS BKN040 OVC060CB
     FM220300 VRB06KT 4SM -SHRASN BR OVC009
     FM220900 VRB06KT 1SM -SHSN BR OVC004
     FM221500 32007KT 4SM -SHRASN BR SCT005 BKN009 OVC030
     FM221900 18012KT 6SM -RA BR OVC025=



000
FTUS45 KBOI 212115 AAA
TAFJER
TAF AMD
KJER 212115Z 2121/2218 25010G20KT P6SM -SHRA BKN040
      TEMPO 2121/2122 VRB10G25KT P6SM -TSRA BKN040CB
     FM220300 14007KT P6SM VCSH BKN050
     FM221700 25011KT P6SM -SHRA BKN035=



000
FTUS45 KBOI 211740
TAFTWF
TAF
KTWF 211740Z 2118/2218 30007KT P6SM VCSH BKN035
     FM212100 27010G20KT P6SM -SHRA BKN035
     FM220200 20010KT P6SM VCSH BKN050
     FM221700 28011KT P6SM -SHRA BKN035=



000
FTUS45 KBOI 211740
TAFMYL
TAF
KMYL 211740Z 2118/2218 VRB06KT P6SM -SHRA BKN030 OVC050
     FM220300 VRB06KT 4SM -SHRASN BR OVC009
     FM220900 VRB06KT 1SM -SHSN BR OVC004
     FM221500 32007KT 4SM -SHRASN BR SCT005 BKN009 OVC030=



000
FTUS45 KBOI 211740
TAFBKE
TAF
KBKE 211740Z 2118/2218 VRB06KT P6SM -SHRA SCT015 BKN035
     FM212100 VRB06G16KT P6SM -SHRA SCT015 BKN025
     FM220900 31006KT P6SM VCSH BKN035=



000
FTUS45 KBOI 211740
TAFBOI
TAF
KBOI 211740Z 2118/2218 22007KT P6SM -SHRA BKN035 BKN070
     FM212100 22010G20KT P6SM -SHRA BKN035 BKN070
     FM220100 VRB06KT P6SM VCSH BKN035
     FM221700 30010KT P6SM -SHRA BKN035=



000
FTUS45 KBOI 211740
TAFBNO
TAF
KBNO 211740Z 2118/2218 VRB06KT P6SM -SHRA BKN020 OVC035
     FM212100 24010G20KT P6SM -SHRA BKN025 BKN050
     FM220300 27007KT P6SM BKN015
     FM221700 27007KT P6SM -SHRA BKN035=



000
FTUS45 KBOI 211740
TAFJER
TAF
KJER 211740Z 2118/2218 25007KT P6SM VCSH BKN035
     FM212100 25010G20KT P6SM -SHRA BKN035
     FM220300 14007KT P6SM VCSH BKN050
     FM221700 25011KT P6SM -SHRA BKN035=



000
FTUS45 KBOI 211447 AAA
TAFBNO
TAF AMD
KBNO 211447Z 2115/2212 VRB05KT P6SM -SHRA BKN025 OVC050
     FM211900 24010G20KT P6SM -SHRA OVC025
     FM220300 25006KT P6SM OVC050=



000
FTUS45 KBOI 211319 AAA
TAFMYL
TAF AMD
KMYL 211319Z 2113/2212 VRB03KT P6SM -SHRA VCFG BKN020 OVC060
     FM211500 VRB06KT P6SM -SHRA BKN030 OVC100
     FM220600 VRB03KT 4SM -SHRA BR OVC010=



000
FTUS45 KBOI 211225 CCA
TAFMYL
TAF COR
KMYL 211225Z 2112/2212 VRB03KT P6SM -SHRA VCFG BKN040 OVC060
     FM211500 VRB06KT P6SM -SHRA BKN030 OVC100
     FM220600 VRB03KT 4SM -SHRA BR OVC010=



000
FTUS45 KBOI 211224 CCA
TAFBOI
TAF COR
KBOI 211224Z 2112/2212 13006KT P6SM SCT060 BKN120
     FM211800 15011KT P6SM -SHRA BKN040 OVC060=



    US Dept of Commerce
    National Oceanic and Atmospheric Administration
    National Weather Service
    1325 East West Highway
    Silver Spring, MD 20910
    Page Author: NWS Internet Services Team
Disclaimer
Information Quality
Credits
Glossary
Privacy Policy
Freedom of Information Act (FOIA)
About Us
Career Opportunities